INFORMAÇÕES DO AERODROMO
Icao Aerodromo FAOR Nome do Aerodromo Olifants River Bridge Landing Strip Airport Cidade Olifants River Bridge
Código GPS FAOR Elevação Média 2420 ft Tipo de Aerodromo small_airport

INFORMAÇÃO DE PISTA

FREQUÊNCIAS DO AERODROMO

INFORMAÇÕES DE NAVEGAÇÃO PRÓXIMO AO AERODROMO

Informações de Meteorologia(METAR atual)
METAR DE FAOR
ADDS - METARS form results

(1939 UTC 06 July 2020)
Data provider http://aviationweather.gov/metar/data/
 
METAR text: FAOR 061930Z 30003KT CAVOK 14/M08 Q1027 NOSIG
Conditions at: FAOR (JOHANNESBURG/TAM, ZA) observed 1930 UTC 06 July 2020
Temperature: 14.0°C (57°F)
Dewpoint: -8.0°C (18°F) [RH = 21%]
Pressure (altimeter): 30.32 inches Hg (1027.0 mb)
Winds: from the WNW (300 degrees) at 3 MPH (3 knots; 1.5 m/s)
Visibility: 6 or more miles (10+ km)
Ceiling: ceiling and visibility are OK
Clouds: unknown
Weather: no significant weather observed at this time

METAR text: FAOR 061900Z 30003KT 200V320 CAVOK 15/M09 Q1028 NOSIG
Conditions at: FAOR (JOHANNESBURG/TAM, ZA) observed 1900 UTC 06 July 2020
Temperature: 15.0°C (59°F)
Dewpoint: -9.0°C (16°F) [RH = 18%]
Pressure (altimeter): 30.35 inches Hg (1028.0 mb)
Winds: from the WNW (300 degrees) at 3 MPH (3 knots; 1.5 m/s)
Visibility: 6 or more miles (10+ km)
Ceiling: ceiling and visibility are OK
Clouds: unknown
Weather: no significant weather observed at this time

Forecast for: FAOR (JOHANNESBURG/TAM, ZA)
Text: TAF FAOR 061600Z 0618/0724 34009KT CAVOK TX20/0713Z TN07/0704Z
Forecast period: 1800 to 1900 UTC 06 July 2020
Forecast type: FROM: standard forecast or significant change
Winds: from the NNW (340 degrees) at 10 MPH (9 knots; 4.6 m/s)
Visibility: 6 or more miles 10+ km)
Ceiling: unknown
Clouds: missing
Weather: no significant weather forecast for this period
Text: BECMG 0619/0621 VRB03KT
Forecast period: 1900 UTC 06 July 2020 to 0700 UTC 07 July 2020
Forecast type: BECOMING: Conditions expected to become as follows by 2100 UTC 06 July 2020
Winds: variable direction winds at 3 MPH (3 knots; 1.5 m/s)
Visibility: 6 or more miles 10+ km)
Ceiling: unknown
Clouds: missing
Weather: no significant weather forecast for this period
Text: BECMG 0707/0709 21010KT
Forecast period: 0700 to 2000 UTC 07 July 2020
Forecast type: BECOMING: Conditions expected to become as follows by 0900 UTC 07 July 2020
Winds: from the SSW (210 degrees) at 12 MPH (10 knots; 5.1 m/s)
Visibility: 6 or more miles 10+ km)
Ceiling: unknown
Clouds: missing
Weather: no significant weather forecast for this period
Text: BECMG 0720/0722 10013KT
Forecast period: 2000 UTC 07 July 2020 to 0000 UTC 08 July 2020
Forecast type: BECOMING: Conditions expected to become as follows by 2200 UTC 07 July 2020
Winds: from the E (100 degrees) at 15 MPH (13 knots; 6.7 m/s)
Visibility: 6 or more miles 10+ km)
Ceiling: unknown
Clouds: missing
Weather: no significant weather forecast for this period

MAPA DO AERODROMO


Desenvolvido por Virtual Airlines Manager




Modificado por Servidor Brasil Amigos